createdAt,value
2019-02-04T00:02:12.648Z,0.90
2019-02-04T00:06:23.585Z,0.90
2019-02-04T00:10:34.502Z,1.00
2019-02-04T00:14:45.582Z,1.00
2019-02-04T00:18:56.437Z,1.00
2019-02-04T00:23:07.395Z,1.00
2019-02-04T00:27:18.550Z,1.00
2019-02-04T00:31:29.470Z,1.00
2019-02-04T00:35:40.454Z,1.00
2019-02-04T00:39:51.478Z,1.00
2019-02-04T00:44:02.304Z,1.00
2019-02-04T00:48:13.221Z,1.00
2019-02-04T00:52:24.242Z,1.00
2019-02-04T00:56:35.119Z,1.10
2019-02-04T01:00:45.955Z,1.10
2019-02-04T01:04:56.908Z,1.10
2019-02-04T01:09:08.741Z,1.10
2019-02-04T01:13:19.695Z,1.10
2019-02-04T01:17:30.771Z,1.00
2019-02-04T01:21:41.587Z,1.00
2019-02-04T01:25:57.421Z,1.00
2019-02-04T01:30:17.151Z,0.90
2019-02-04T01:34:30.132Z,0.80
2019-02-04T01:38:41.771Z,0.70
2019-02-04T01:42:53.571Z,0.70
2019-02-04T01:47:14.164Z,0.70
2019-02-04T01:51:16.842Z,0.70
2019-02-04T01:55:27.954Z,0.80
2019-02-04T01:59:39.027Z,0.80
2019-02-04T02:03:48.857Z,0.80
2019-02-04T02:07:59.815Z,0.90
2019-02-04T02:12:10.753Z,1.00
2019-02-04T02:16:21.661Z,1.10
2019-02-04T02:20:32.574Z,1.10
2019-02-04T02:24:43.389Z,1.00
2019-02-04T02:28:54.440Z,1.00
2019-02-04T02:33:05.401Z,0.90
2019-02-04T02:37:16.255Z,0.80
2019-02-04T02:41:27.075Z,0.80
2019-02-04T02:45:37.996Z,0.70
2019-02-04T02:49:48.956Z,0.70
2019-02-04T02:53:59.815Z,0.60
2019-02-04T02:58:10.786Z,0.60
2019-02-04T03:02:21.601Z,0.60
2019-02-04T03:06:32.982Z,0.50
2019-02-04T03:10:43.909Z,0.50
2019-02-04T03:14:54.838Z,0.40
2019-02-04T03:19:05.997Z,0.40
2019-02-04T03:23:16.805Z,0.40
2019-02-04T03:27:27.690Z,0.40
2019-02-04T03:31:39.721Z,0.30
2019-02-04T03:35:50.913Z,0.40
2019-02-04T03:40:01.931Z,0.30
2019-02-04T03:44:12.886Z,0.30
2019-02-04T03:48:23.849Z,0.30
2019-02-04T03:52:34.735Z,0.30
2019-02-04T03:56:45.588Z,0.30
2019-02-04T04:00:56.549Z,0.30
2019-02-04T04:05:07.403Z,0.30
2019-02-04T04:09:18.252Z,0.30
2019-02-04T04:13:29.115Z,0.30
2019-02-04T04:17:40.033Z,0.30
2019-02-04T04:21:50.846Z,0.30
2019-02-04T04:26:01.799Z,0.30
2019-02-04T04:30:21.183Z,0.30
2019-02-04T04:34:32.683Z,0.30
2019-02-04T04:38:43.617Z,0.30
2019-02-04T04:42:54.426Z,0.40
2019-02-04T04:47:05.346Z,0.40
2019-02-04T04:51:16.149Z,0.40
2019-02-04T04:55:27.340Z,0.40
2019-02-04T04:59:38.391Z,0.50
2019-02-04T05:03:49.413Z,0.50
2019-02-04T05:08:00.325Z,0.40
2019-02-04T05:12:11.150Z,0.40
2019-02-04T05:16:22.124Z,0.40
2019-02-04T05:20:32.961Z,0.30
2019-02-04T05:24:43.786Z,0.30
2019-02-04T05:28:53.609Z,0.30
2019-02-04T05:33:04.582Z,0.30
2019-02-04T05:37:15.501Z,0.20
2019-02-04T05:41:26.388Z,0.20
2019-02-04T05:45:37.624Z,0.20
2019-02-04T05:49:48.531Z,0.20
2019-02-04T05:53:59.492Z,0.20
2019-02-04T05:58:10.405Z,0.20
2019-02-04T06:02:21.358Z,0.20
2019-02-04T06:06:32.277Z,0.10
2019-02-04T06:10:43.397Z,0.10
2019-02-04T06:14:54.310Z,0.10
2019-02-04T06:19:05.227Z,0.00
2019-02-04T06:23:16.254Z,-0.10
2019-02-04T06:27:27.415Z,-0.10
2019-02-04T06:31:38.524Z,-0.20
2019-02-04T06:35:49.483Z,-0.30
2019-02-04T06:40:00.366Z,-0.30
2019-02-04T06:44:11.321Z,-0.30
2019-02-04T06:48:22.524Z,-0.30
2019-02-04T06:52:33.654Z,-0.30
2019-02-04T06:56:44.517Z,-0.30
2019-02-04T07:00:55.346Z,-0.40
2019-02-04T07:05:07.934Z,-0.40
2019-02-04T07:09:18.988Z,-0.40
2019-02-04T07:13:29.854Z,-0.40
2019-02-04T07:17:40.681Z,-0.40
2019-02-04T07:21:51.617Z,-0.40
2019-02-04T07:26:02.530Z,-0.40
2019-02-04T07:30:16.245Z,-0.40
2019-02-04T07:34:27.081Z,-0.30
2019-02-04T07:38:38.037Z,-0.30
2019-02-04T07:42:50.147Z,-0.30
2019-02-04T07:47:01.205Z,-0.30
2019-02-04T07:51:12.169Z,-0.20
2019-02-04T07:55:23.023Z,-0.10
2019-02-04T07:59:34.083Z,0.00
2019-02-04T08:03:45.151Z,0.10
2019-02-04T08:07:55.974Z,0.20
2019-02-04T08:12:06.830Z,0.30
2019-02-04T08:16:17.787Z,0.40
2019-02-04T08:20:28.593Z,0.70
2019-02-04T08:24:39.407Z,2.70
2019-02-04T08:28:50.617Z,4.60
2019-02-04T08:33:01.571Z,5.80
2019-02-04T08:37:12.465Z,6.20
2019-02-04T08:41:23.389Z,6.70
2019-02-04T08:45:34.227Z,7.20
2019-02-04T08:49:45.129Z,7.60
2019-02-04T08:53:56.084Z,7.40
2019-02-04T08:58:06.901Z,6.80
2019-02-04T09:02:17.958Z,6.30
2019-02-04T09:06:29.279Z,6.10
2019-02-04T09:10:40.198Z,5.90
2019-02-04T09:14:51.148Z,5.60
2019-02-04T09:19:02.153Z,5.20
2019-02-04T09:23:13.142Z,5.20
2019-02-04T09:27:23.958Z,5.30
2019-02-04T09:31:35.023Z,5.30
2019-02-04T09:35:45.841Z,5.10
2019-02-04T09:39:56.889Z,5.30
2019-02-04T09:44:08.016Z,5.30
2019-02-04T09:48:18.982Z,5.40
2019-02-04T09:52:29.906Z,5.70
2019-02-04T09:56:40.831Z,6.10
2019-02-04T10:00:51.699Z,6.90
2019-02-04T10:05:02.613Z,8.50
2019-02-04T10:09:13.565Z,10.10
2019-02-04T10:13:25.297Z,11.30
2019-02-04T10:17:36.245Z,12.00
2019-02-04T10:21:47.288Z,12.30
2019-02-04T10:25:58.132Z,12.30
2019-02-04T10:30:14.648Z,13.00
2019-02-04T10:34:25.517Z,13.60
2019-02-04T10:38:35.485Z,13.60
2019-02-04T10:42:46.339Z,13.40
2019-02-04T10:46:57.651Z,13.70
2019-02-04T10:51:08.807Z,13.90
2019-02-04T10:55:19.819Z,14.10
2019-02-04T10:59:30.154Z,14.00
2019-02-04T11:03:42.589Z,14.40
2019-02-04T11:07:53.422Z,13.90
2019-02-04T11:12:04.868Z,13.90
2019-02-04T11:16:16.204Z,13.50
2019-02-04T11:20:31.388Z,13.80
2019-02-04T11:24:42.445Z,13.80
2019-02-04T11:28:54.181Z,13.40
2019-02-04T11:33:06.616Z,13.80
2019-02-04T11:37:19.196Z,13.60
2019-02-04T11:41:30.603Z,14.40
2019-02-04T11:45:41.992Z,14.20
2019-02-04T11:49:53.099Z,13.80
2019-02-04T11:54:04.587Z,14.50
2019-02-04T11:58:14.970Z,14.30
2019-02-04T12:02:34.381Z,15.20
2019-02-04T12:06:38.736Z,15.90
2019-02-04T12:10:55.713Z,16.00
2019-02-04T12:15:09.922Z,15.50
2019-02-04T12:19:21.092Z,15.00
2019-02-04T12:23:32.117Z,15.20
2019-02-04T12:27:43.193Z,15.60
2019-02-04T12:31:54.430Z,15.20
2019-02-04T12:36:05.296Z,14.90
2019-02-04T12:40:16.890Z,16.00
2019-02-04T12:44:26.901Z,15.40
2019-02-04T12:48:37.875Z,15.10
2019-02-04T12:52:48.953Z,13.10
2019-02-04T12:56:59.782Z,9.60
2019-02-04T13:01:10.748Z,8.10
2019-02-04T13:05:24.525Z,7.20
2019-02-04T13:09:35.385Z,6.90
2019-02-04T13:13:46.351Z,6.70
2019-02-04T13:17:57.395Z,6.60
2019-02-04T13:22:08.214Z,6.60
2019-02-04T13:26:19.130Z,6.60
2019-02-04T13:30:34.073Z,6.50
2019-02-04T13:34:45.310Z,6.50
2019-02-04T13:38:57.617Z,6.60
2019-02-04T13:43:08.552Z,6.40
2019-02-04T13:47:20.615Z,6.20
2019-02-04T13:51:32.378Z,6.10
2019-02-04T13:55:43.369Z,5.90
2019-02-04T13:59:53.431Z,5.80
2019-02-04T14:04:05.484Z,5.60
2019-02-04T14:08:17.793Z,5.40
2019-02-04T14:12:30.015Z,5.40
2019-02-04T14:16:42.906Z,5.30
2019-02-04T14:20:57.957Z,5.40
2019-02-04T14:25:13.009Z,5.30
2019-02-04T14:29:25.433Z,5.10
2019-02-04T14:33:41.629Z,4.90
2019-02-04T14:37:53.904Z,4.90
2019-02-04T14:42:07.048Z,4.90
2019-02-04T14:46:23.995Z,4.80
2019-02-04T14:50:47.341Z,4.90
2019-02-04T14:55:17.144Z,4.90
2019-02-04T14:59:33.650Z,4.70
2019-02-04T15:04:02.580Z,4.60
2019-02-04T15:08:33.644Z,4.50
2019-02-04T15:13:10.045Z,4.50
2019-02-04T15:17:27.300Z,4.30
2019-02-04T15:22:04.498Z,4.30
2019-02-04T15:26:23.133Z,4.00
2019-02-04T15:30:58.445Z,3.80
2019-02-04T15:35:43.963Z,3.70
2019-02-04T15:40:23.194Z,3.60
2019-02-04T15:45:07.812Z,3.40
2019-02-04T15:50:02.507Z,3.30
2019-02-04T15:54:20.318Z,3.20
2019-02-04T15:58:36.472Z,3.10
2019-02-04T16:02:52.535Z,3.00
2019-02-04T16:07:13.277Z,3.00
2019-02-04T16:11:29.037Z,2.90
2019-02-04T16:15:46.489Z,2.80
2019-02-04T16:20:03.316Z,2.70
2019-02-04T16:24:20.314Z,2.60
2019-02-04T16:28:37.035Z,2.60
2019-02-04T16:32:53.451Z,2.50
2019-02-04T16:37:11.084Z,2.40
2019-02-04T16:41:27.859Z,2.40
2019-02-04T16:45:44.689Z,2.30
2019-02-04T16:50:03.602Z,2.20
2019-02-04T16:54:21.363Z,2.10
2019-02-04T16:58:40.638Z,2.10
2019-02-04T17:02:58.575Z,2.10
2019-02-04T17:07:17.486Z,2.00
2019-02-04T17:11:35.810Z,1.90
2019-02-04T17:15:53.782Z,1.90
2019-02-04T17:20:21.656Z,1.80
2019-02-04T17:24:39.294Z,1.80
2019-02-04T17:28:57.016Z,1.80
2019-02-04T17:33:14.449Z,1.70
2019-02-04T17:37:31.213Z,1.70
2019-02-04T17:41:51.639Z,1.70
2019-02-04T17:46:08.806Z,1.70
2019-02-04T17:50:27.914Z,1.60
2019-02-04T17:54:45.050Z,1.60
2019-02-04T17:59:02.044Z,1.60
2019-02-04T18:03:21.072Z,1.60
2019-02-04T18:07:38.253Z,1.60
2019-02-04T18:11:56.882Z,1.60
2019-02-04T18:16:16.774Z,1.60
2019-02-04T18:20:36.137Z,1.60
2019-02-04T18:24:54.878Z,1.60
2019-02-04T18:29:14.341Z,1.60
2019-02-04T18:33:34.261Z,1.50
2019-02-04T18:37:52.773Z,1.50
2019-02-04T18:42:10.101Z,1.40
2019-02-04T18:46:30.563Z,1.40
2019-02-04T18:50:48.260Z,1.40
2019-02-04T18:55:06.202Z,1.30
2019-02-04T18:59:28.110Z,1.20
2019-02-04T19:03:47.559Z,1.20
2019-02-04T19:08:04.906Z,1.10
2019-02-04T19:12:23.979Z,1.10
2019-02-04T19:16:45.752Z,1.00
2019-02-04T19:21:03.069Z,0.90
2019-02-04T19:25:23.677Z,0.90
2019-02-04T19:29:51.700Z,0.80
2019-02-04T19:34:10.844Z,0.80
2019-02-04T19:38:30.362Z,0.80
2019-02-04T19:42:49.147Z,0.70
2019-02-04T19:47:07.527Z,0.80
2019-02-04T19:51:26.784Z,0.80
2019-02-04T19:55:45.280Z,0.70
2019-02-04T20:00:03.776Z,0.70
2019-02-04T20:04:25.972Z,0.70
2019-02-04T20:08:43.654Z,0.70
2019-02-04T20:13:02.768Z,0.80
2019-02-04T20:17:21.403Z,0.70
2019-02-04T20:21:41.210Z,0.70
2019-02-04T20:25:58.918Z,0.60
2019-02-04T20:30:18.610Z,0.50
2019-02-04T20:34:37.269Z,0.50
2019-02-04T20:38:56.974Z,0.50
2019-02-04T20:43:15.202Z,0.50
2019-02-04T20:47:33.216Z,0.50
2019-02-04T20:51:50.770Z,0.50
2019-02-04T20:56:09.009Z,0.50
2019-02-04T21:00:30.557Z,0.40
2019-02-04T21:04:47.528Z,0.40
2019-02-04T21:09:10.918Z,0.40
2019-02-04T21:13:29.639Z,0.40
2019-02-04T21:17:46.953Z,0.40
2019-02-04T21:22:04.139Z,0.40
2019-02-04T21:26:22.293Z,0.40
2019-02-04T21:30:38.892Z,0.40
2019-02-04T21:34:49.972Z,0.40
2019-02-04T21:39:04.829Z,0.40
2019-02-04T21:43:15.255Z,0.40
2019-02-04T21:47:29.588Z,0.40
2019-02-04T21:51:40.745Z,0.40
2019-02-04T21:55:52.919Z,0.40
2019-02-04T22:00:05.221Z,0.40
2019-02-04T22:04:16.272Z,0.50
2019-02-04T22:08:27.367Z,0.50
2019-02-04T22:12:38.534Z,0.50
2019-02-04T22:16:49.455Z,0.50
2019-02-04T22:21:00.504Z,0.50
2019-02-04T22:25:19.590Z,0.50
2019-02-04T22:29:25.557Z,0.50
2019-02-04T22:33:36.459Z,0.40
2019-02-04T22:37:47.280Z,0.40
2019-02-04T22:42:00.342Z,0.40
2019-02-04T22:46:11.145Z,0.40
2019-02-04T22:50:23.700Z,0.40
2019-02-04T22:54:34.531Z,0.40
2019-02-04T22:58:45.402Z,0.50
2019-02-04T23:02:56.255Z,0.50
2019-02-04T23:07:07.059Z,0.50
2019-02-04T23:11:18.033Z,0.60
2019-02-04T23:15:28.846Z,0.50
2019-02-04T23:19:39.809Z,0.50
2019-02-04T23:23:50.689Z,0.50
2019-02-04T23:28:01.707Z,0.50
2019-02-04T23:32:12.570Z,0.50
2019-02-04T23:36:23.568Z,0.50
2019-02-04T23:40:33.415Z,0.50
2019-02-04T23:44:44.358Z,0.50
2019-02-04T23:48:55.208Z,0.60
2019-02-04T23:53:06.328Z,0.60
2019-02-04T23:57:17.180Z,0.60
